sensor_id;sensor_type;location;lat;lon;timestamp;P1;durP1;ratioP1;P2;durP2;ratioP2
21233;SDS011;10774;42.178;26.578;2023-07-13T00:01:37;16.73;;;8.43;;
21233;SDS011;10774;42.178;26.578;2023-07-13T00:04:03;15.13;;;8.68;;
21233;SDS011;10774;42.178;26.578;2023-07-13T00:06:29;8.85;;;7.25;;
21233;SDS011;10774;42.178;26.578;2023-07-13T00:08:57;12.25;;;7.97;;
21233;SDS011;10774;42.178;26.578;2023-07-13T00:11:23;10.70;;;8.07;;
21233;SDS011;10774;42.178;26.578;2023-07-13T00:13:49;10.15;;;8.15;;
21233;SDS011;10774;42.178;26.578;2023-07-13T00:16:14;11.65;;;8.25;;
21233;SDS011;10774;42.178;26.578;2023-07-13T00:18:40;12.02;;;7.78;;
21233;SDS011;10774;42.178;26.578;2023-07-13T00:21:05;13.05;;;7.43;;
21233;SDS011;10774;42.178;26.578;2023-07-13T00:23:34;10.93;;;7.25;;
21233;SDS011;10774;42.178;26.578;2023-07-13T00:26:02;9.27;;;7.60;;
21233;SDS011;10774;42.178;26.578;2023-07-13T00:28:28;11.02;;;8.40;;
21233;SDS011;10774;42.178;26.578;2023-07-13T00:30:54;8.98;;;8.07;;
21233;SDS011;10774;42.178;26.578;2023-07-13T00:33:19;14.57;;;7.55;;
21233;SDS011;10774;42.178;26.578;2023-07-13T00:35:45;9.57;;;7.45;;
21233;SDS011;10774;42.178;26.578;2023-07-13T00:38:11;8.80;;;7.90;;
21233;SDS011;10774;42.178;26.578;2023-07-13T00:40:36;10.32;;;8.75;;
21233;SDS011;10774;42.178;26.578;2023-07-13T00:43:02;12.00;;;8.18;;
21233;SDS011;10774;42.178;26.578;2023-07-13T00:47:54;9.85;;;7.65;;
21233;SDS011;10774;42.178;26.578;2023-07-13T00:50:22;14.23;;;8.70;;
21233;SDS011;10774;42.178;26.578;2023-07-13T00:52:50;15.75;;;8.75;;
21233;SDS011;10774;42.178;26.578;2023-07-13T00:55:18;8.32;;;7.50;;
21233;SDS011;10774;42.178;26.578;2023-07-13T00:57:46;15.00;;;8.45;;
21233;SDS011;10774;42.178;26.578;2023-07-13T01:00:12;9.85;;;8.45;;
21233;SDS011;10774;42.178;26.578;2023-07-13T01:02:39;11.55;;;8.70;;
21233;SDS011;10774;42.178;26.578;2023-07-13T01:05:14;14.85;;;8.75;;
21233;SDS011;10774;42.178;26.578;2023-07-13T01:07:42;11.00;;;9.27;;
21233;SDS011;10774;42.178;26.578;2023-07-13T01:10:09;11.00;;;9.75;;
21233;SDS011;10774;42.178;26.578;2023-07-13T01:12:54;15.65;;;9.73;;
21233;SDS011;10774;42.178;26.578;2023-07-13T01:18:05;12.20;;;9.40;;
21233;SDS011;10774;42.178;26.578;2023-07-13T01:20:33;12.77;;;9.40;;
21233;SDS011;10774;42.178;26.578;2023-07-13T01:23:08;11.18;;;9.48;;
21233;SDS011;10774;42.178;26.578;2023-07-13T01:25:35;11.70;;;9.07;;
21233;SDS011;10774;42.178;26.578;2023-07-13T01:28:02;13.77;;;8.82;;
21233;SDS011;10774;42.178;26.578;2023-07-13T01:30:28;14.65;;;8.80;;
21233;SDS011;10774;42.178;26.578;2023-07-13T01:32:54;10.30;;;8.15;;
21233;SDS011;10774;42.178;26.578;2023-07-13T01:35:20;10.35;;;8.93;;
21233;SDS011;10774;42.178;26.578;2023-07-13T01:37:45;12.52;;;8.52;;
21233;SDS011;10774;42.178;26.578;2023-07-13T01:40:11;13.65;;;8.88;;
21233;SDS011;10774;42.178;26.578;2023-07-13T01:42:37;10.50;;;8.90;;
21233;SDS011;10774;42.178;26.578;2023-07-13T01:45:03;12.48;;;9.60;;
21233;SDS011;10774;42.178;26.578;2023-07-13T01:47:29;10.52;;;9.20;;
21233;SDS011;10774;42.178;26.578;2023-07-13T01:49:56;11.50;;;9.40;;
21233;SDS011;10774;42.178;26.578;2023-07-13T01:52:22;14.63;;;9.23;;
21233;SDS011;10774;42.178;26.578;2023-07-13T01:54:47;11.13;;;8.57;;
21233;SDS011;10774;42.178;26.578;2023-07-13T01:57:13;13.13;;;8.50;;
21233;SDS011;10774;42.178;26.578;2023-07-13T01:59:38;12.35;;;8.38;;
21233;SDS011;10774;42.178;26.578;2023-07-13T02:02:03;12.45;;;8.52;;
21233;SDS011;10774;42.178;26.578;2023-07-13T02:04:29;10.40;;;8.43;;
21233;SDS011;10774;42.178;26.578;2023-07-13T02:06:54;9.80;;;8.55;;
21233;SDS011;10774;42.178;26.578;2023-07-13T02:09:20;10.57;;;8.43;;
21233;SDS011;10774;42.178;26.578;2023-07-13T02:11:46;10.82;;;9.38;;
21233;SDS011;10774;42.178;26.578;2023-07-13T02:14:11;13.95;;;9.25;;
21233;SDS011;10774;42.178;26.578;2023-07-13T02:16:37;10.77;;;9.63;;
21233;SDS011;10774;42.178;26.578;2023-07-13T02:19:02;13.25;;;9.20;;
21233;SDS011;10774;42.178;26.578;2023-07-13T02:21:28;11.15;;;8.80;;
21233;SDS011;10774;42.178;26.578;2023-07-13T02:23:54;10.55;;;9.15;;
21233;SDS011;10774;42.178;26.578;2023-07-13T02:26:20;14.32;;;9.10;;
21233;SDS011;10774;42.178;26.578;2023-07-13T02:28:45;9.85;;;8.77;;
21233;SDS011;10774;42.178;26.578;2023-07-13T02:31:12;13.45;;;9.85;;
21233;SDS011;10774;42.178;26.578;2023-07-13T02:33:39;14.07;;;8.98;;
21233;SDS011;10774;42.178;26.578;2023-07-13T02:36:05;16.50;;;10.00;;
21233;SDS011;10774;42.178;26.578;2023-07-13T02:38:31;14.35;;;9.88;;
21233;SDS011;10774;42.178;26.578;2023-07-13T02:41:01;14.90;;;10.18;;
21233;SDS011;10774;42.178;26.578;2023-07-13T02:43:29;18.35;;;11.15;;
21233;SDS011;10774;42.178;26.578;2023-07-13T02:45:55;19.60;;;10.77;;
21233;SDS011;10774;42.178;26.578;2023-07-13T02:48:20;16.25;;;10.77;;
21233;SDS011;10774;42.178;26.578;2023-07-13T02:50:46;12.98;;;9.75;;
21233;SDS011;10774;42.178;26.578;2023-07-13T02:53:12;17.45;;;10.05;;
21233;SDS011;10774;42.178;26.578;2023-07-13T02:55:38;15.88;;;9.82;;
21233;SDS011;10774;42.178;26.578;2023-07-13T02:58:06;11.57;;;8.52;;
21233;SDS011;10774;42.178;26.578;2023-07-13T03:00:31;16.20;;;8.68;;
21233;SDS011;10774;42.178;26.578;2023-07-13T03:02:57;9.48;;;8.00;;
21233;SDS011;10774;42.178;26.578;2023-07-13T03:05:23;9.93;;;8.90;;
21233;SDS011;10774;42.178;26.578;2023-07-13T03:07:49;10.73;;;8.55;;
21233;SDS011;10774;42.178;26.578;2023-07-13T03:10:14;12.00;;;8.93;;
21233;SDS011;10774;42.178;26.578;2023-07-13T03:12:41;10.02;;;7.95;;
21233;SDS011;10774;42.178;26.578;2023-07-13T03:15:06;9.80;;;8.50;;
21233;SDS011;10774;42.178;26.578;2023-07-13T03:17:32;11.98;;;8.52;;
21233;SDS011;10774;42.178;26.578;2023-07-13T03:19:57;15.35;;;8.52;;
21233;SDS011;10774;42.178;26.578;2023-07-13T03:22:23;11.57;;;8.80;;
21233;SDS011;10774;42.178;26.578;2023-07-13T03:24:48;11.13;;;9.38;;
21233;SDS011;10774;42.178;26.578;2023-07-13T03:27:15;13.38;;;9.27;;
21233;SDS011;10774;42.178;26.578;2023-07-13T03:29:43;15.23;;;9.55;;
21233;SDS011;10774;42.178;26.578;2023-07-13T03:32:08;11.55;;;8.90;;
21233;SDS011;10774;42.178;26.578;2023-07-13T03:34:34;12.63;;;9.50;;
21233;SDS011;10774;42.178;26.578;2023-07-13T03:37:00;17.55;;;9.73;;
21233;SDS011;10774;42.178;26.578;2023-07-13T03:39:25;15.70;;;9.50;;
21233;SDS011;10774;42.178;26.578;2023-07-13T03:41:51;12.60;;;9.65;;
21233;SDS011;10774;42.178;26.578;2023-07-13T03:44:17;15.40;;;9.43;;
21233;SDS011;10774;42.178;26.578;2023-07-13T03:46:44;14.13;;;10.40;;
21233;SDS011;10774;42.178;26.578;2023-07-13T03:49:10;13.02;;;9.48;;
21233;SDS011;10774;42.178;26.578;2023-07-13T03:51:36;18.23;;;9.73;;
21233;SDS011;10774;42.178;26.578;2023-07-13T03:54:02;14.25;;;10.18;;
21233;SDS011;10774;42.178;26.578;2023-07-13T03:56:28;29.45;;;10.63;;
21233;SDS011;10774;42.178;26.578;2023-07-13T03:58:55;20.92;;;9.80;;
21233;SDS011;10774;42.178;26.578;2023-07-13T04:01:22;14.82;;;9.35;;
21233;SDS011;10774;42.178;26.578;2023-07-13T04:03:50;13.23;;;8.77;;
21233;SDS011;10774;42.178;26.578;2023-07-13T04:06:37;10.80;;;8.75;;
21233;SDS011;10774;42.178;26.578;2023-07-13T04:09:02;13.13;;;10.40;;
21233;SDS011;10774;42.178;26.578;2023-07-13T04:11:32;14.20;;;10.68;;
21233;SDS011;10774;42.178;26.578;2023-07-13T04:13:58;14.45;;;11.07;;
21233;SDS011;10774;42.178;26.578;2023-07-13T04:16:24;13.85;;;11.35;;
21233;SDS011;10774;42.178;26.578;2023-07-13T04:18:51;15.85;;;11.27;;
21233;SDS011;10774;42.178;26.578;2023-07-13T04:21:21;13.57;;;10.57;;
21233;SDS011;10774;42.178;26.578;2023-07-13T04:23:47;15.90;;;11.00;;
21233;SDS011;10774;42.178;26.578;2023-07-13T04:26:12;14.30;;;11.07;;
21233;SDS011;10774;42.178;26.578;2023-07-13T04:28:38;17.40;;;11.25;;
21233;SDS011;10774;42.178;26.578;2023-07-13T04:31:03;14.80;;;12.57;;
21233;SDS011;10774;42.178;26.578;2023-07-13T04:33:29;17.30;;;12.30;;
21233;SDS011;10774;42.178;26.578;2023-07-13T04:35:54;21.55;;;13.70;;
21233;SDS011;10774;42.178;26.578;2023-07-13T04:38:25;17.52;;;12.52;;
21233;SDS011;10774;42.178;26.578;2023-07-13T04:40:58;17.90;;;11.93;;
21233;SDS011;10774;42.178;26.578;2023-07-13T04:43:26;18.63;;;12.93;;
21233;SDS011;10774;42.178;26.578;2023-07-13T04:45:53;17.85;;;12.85;;
21233;SDS011;10774;42.178;26.578;2023-07-13T04:48:19;19.90;;;12.82;;
21233;SDS011;10774;42.178;26.578;2023-07-13T04:50:45;14.32;;;12.60;;
21233;SDS011;10774;42.178;26.578;2023-07-13T04:53:11;21.83;;;13.30;;
21233;SDS011;10774;42.178;26.578;2023-07-13T04:55:37;18.02;;;11.90;;
21233;SDS011;10774;42.178;26.578;2023-07-13T04:58:03;14.65;;;11.35;;
21233;SDS011;10774;42.178;26.578;2023-07-13T05:00:29;17.52;;;12.02;;
21233;SDS011;10774;42.178;26.578;2023-07-13T05:02:55;17.67;;;12.60;;
21233;SDS011;10774;42.178;26.578;2023-07-13T05:05:22;15.88;;;12.02;;
21233;SDS011;10774;42.178;26.578;2023-07-13T05:07:48;14.52;;;11.85;;
21233;SDS011;10774;42.178;26.578;2023-07-13T05:10:14;18.98;;;13.80;;
21233;SDS011;10774;42.178;26.578;2023-07-13T05:12:39;18.15;;;11.77;;
21233;SDS011;10774;42.178;26.578;2023-07-13T05:15:05;16.17;;;11.32;;
21233;SDS011;10774;42.178;26.578;2023-07-13T05:17:31;14.68;;;11.63;;
21233;SDS011;10774;42.178;26.578;2023-07-13T05:19:57;21.50;;;11.13;;
21233;SDS011;10774;42.178;26.578;2023-07-13T05:22:22;18.63;;;11.57;;
21233;SDS011;10774;42.178;26.578;2023-07-13T05:24:47;13.60;;;11.27;;
21233;SDS011;10774;42.178;26.578;2023-07-13T05:27:13;17.08;;;12.70;;
21233;SDS011;10774;42.178;26.578;2023-07-13T05:29:38;15.88;;;11.35;;
21233;SDS011;10774;42.178;26.578;2023-07-13T05:32:04;19.58;;;12.30;;
21233;SDS011;10774;42.178;26.578;2023-07-13T05:34:30;18.40;;;12.23;;
21233;SDS011;10774;42.178;26.578;2023-07-13T05:36:55;18.85;;;13.00;;
21233;SDS011;10774;42.178;26.578;2023-07-13T05:39:21;20.30;;;11.98;;
21233;SDS011;10774;42.178;26.578;2023-07-13T05:41:46;18.20;;;12.63;;
21233;SDS011;10774;42.178;26.578;2023-07-13T05:44:13;17.48;;;11.70;;
21233;SDS011;10774;42.178;26.578;2023-07-13T05:46:38;16.13;;;11.57;;
21233;SDS011;10774;42.178;26.578;2023-07-13T05:49:03;14.02;;;12.48;;
21233;SDS011;10774;42.178;26.578;2023-07-13T05:51:29;16.60;;;12.57;;
21233;SDS011;10774;42.178;26.578;2023-07-13T05:53:55;16.83;;;12.90;;
21233;SDS011;10774;42.178;26.578;2023-07-13T05:56:20;16.27;;;12.05;;
21233;SDS011;10774;42.178;26.578;2023-07-13T05:58:47;22.05;;;13.30;;
21233;SDS011;10774;42.178;26.578;2023-07-13T06:01:14;17.23;;;12.10;;
21233;SDS011;10774;42.178;26.578;2023-07-13T06:03:40;20.05;;;12.95;;
21233;SDS011;10774;42.178;26.578;2023-07-13T06:06:06;16.23;;;12.00;;
21233;SDS011;10774;42.178;26.578;2023-07-13T06:08:33;17.10;;;12.13;;
21233;SDS011;10774;42.178;26.578;2023-07-13T06:11:16;15.85;;;12.32;;
21233;SDS011;10774;42.178;26.578;2023-07-13T06:13:43;17.20;;;11.85;;
21233;SDS011;10774;42.178;26.578;2023-07-13T06:16:09;16.42;;;12.10;;
21233;SDS011;10774;42.178;26.578;2023-07-13T06:18:35;16.27;;;13.05;;
21233;SDS011;10774;42.178;26.578;2023-07-13T06:21:06;16.20;;;11.57;;
21233;SDS011;10774;42.178;26.578;2023-07-13T06:23:36;15.95;;;12.38;;
21233;SDS011;10774;42.178;26.578;2023-07-13T06:26:02;19.13;;;12.90;;
21233;SDS011;10774;42.178;26.578;2023-07-13T06:28:28;13.63;;;12.15;;
21233;SDS011;10774;42.178;26.578;2023-07-13T06:30:54;15.45;;;12.70;;
21233;SDS011;10774;42.178;26.578;2023-07-13T06:33:20;17.05;;;13.02;;
21233;SDS011;10774;42.178;26.578;2023-07-13T06:35:45;16.45;;;12.20;;
21233;SDS011;10774;42.178;26.578;2023-07-13T06:38:10;15.98;;;12.68;;
21233;SDS011;10774;42.178;26.578;2023-07-13T06:40:36;14.55;;;12.93;;
21233;SDS011;10774;42.178;26.578;2023-07-13T06:43:01;16.67;;;12.73;;
21233;SDS011;10774;42.178;26.578;2023-07-13T06:45:27;16.83;;;12.40;;
21233;SDS011;10774;42.178;26.578;2023-07-13T06:47:52;15.18;;;13.55;;
21233;SDS011;10774;42.178;26.578;2023-07-13T06:50:17;15.20;;;11.55;;
21233;SDS011;10774;42.178;26.578;2023-07-13T06:52:43;13.93;;;11.68;;
21233;SDS011;10774;42.178;26.578;2023-07-13T06:55:08;14.32;;;11.80;;
21233;SDS011;10774;42.178;26.578;2023-07-13T06:57:34;13.73;;;10.38;;
21233;SDS011;10774;42.178;26.578;2023-07-13T06:59:59;17.45;;;11.85;;
21233;SDS011;10774;42.178;26.578;2023-07-13T07:02:25;17.77;;;11.50;;
21233;SDS011;10774;42.178;26.578;2023-07-13T07:04:50;13.18;;;11.48;;
21233;SDS011;10774;42.178;26.578;2023-07-13T07:07:16;13.90;;;11.48;;
21233;SDS011;10774;42.178;26.578;2023-07-13T07:09:41;12.40;;;11.15;;
21233;SDS011;10774;42.178;26.578;2023-07-13T07:12:07;19.33;;;11.48;;
21233;SDS011;10774;42.178;26.578;2023-07-13T07:14:33;12.65;;;11.35;;
21233;SDS011;10774;42.178;26.578;2023-07-13T07:16:59;14.60;;;11.98;;
21233;SDS011;10774;42.178;26.578;2023-07-13T07:19:29;18.23;;;12.27;;
21233;SDS011;10774;42.178;26.578;2023-07-13T07:21:55;16.00;;;11.65;;
21233;SDS011;10774;42.178;26.578;2023-07-13T07:24:20;16.15;;;11.25;;
21233;SDS011;10774;42.178;26.578;2023-07-13T07:26:46;13.43;;;10.82;;
21233;SDS011;10774;42.178;26.578;2023-07-13T07:29:11;12.68;;;11.38;;
21233;SDS011;10774;42.178;26.578;2023-07-13T07:31:36;13.55;;;11.95;;
21233;SDS011;10774;42.178;26.578;2023-07-13T07:34:02;16.58;;;11.82;;
21233;SDS011;10774;42.178;26.578;2023-07-13T07:36:29;13.25;;;11.65;;
21233;SDS011;10774;42.178;26.578;2023-07-13T07:38:54;17.48;;;11.00;;
21233;SDS011;10774;42.178;26.578;2023-07-13T07:41:19;15.32;;;11.32;;
21233;SDS011;10774;42.178;26.578;2023-07-13T07:43:45;15.70;;;11.73;;
21233;SDS011;10774;42.178;26.578;2023-07-13T07:46:10;14.25;;;10.80;;
21233;SDS011;10774;42.178;26.578;2023-07-13T07:48:36;13.05;;;11.73;;
21233;SDS011;10774;42.178;26.578;2023-07-13T07:51:01;17.23;;;10.70;;
21233;SDS011;10774;42.178;26.578;2023-07-13T07:53:27;12.82;;;11.52;;
21233;SDS011;10774;42.178;26.578;2023-07-13T07:55:52;16.95;;;12.25;;
21233;SDS011;10774;42.178;26.578;2023-07-13T07:58:18;14.95;;;11.75;;
21233;SDS011;10774;42.178;26.578;2023-07-13T08:00:43;16.73;;;12.02;;
21233;SDS011;10774;42.178;26.578;2023-07-13T08:03:09;14.85;;;11.98;;
21233;SDS011;10774;42.178;26.578;2023-07-13T08:05:35;16.63;;;12.20;;
21233;SDS011;10774;42.178;26.578;2023-07-13T08:08:01;18.20;;;11.52;;
21233;SDS011;10774;42.178;26.578;2023-07-13T08:10:27;15.90;;;11.45;;
21233;SDS011;10774;42.178;26.578;2023-07-13T08:12:52;13.63;;;11.75;;
21233;SDS011;10774;42.178;26.578;2023-07-13T08:15:18;18.63;;;10.90;;
21233;SDS011;10774;42.178;26.578;2023-07-13T08:17:46;13.25;;;11.88;;
21233;SDS011;10774;42.178;26.578;2023-07-13T08:20:16;13.20;;;11.52;;
21233;SDS011;10774;42.178;26.578;2023-07-13T08:22:41;17.95;;;12.00;;
21233;SDS011;10774;42.178;26.578;2023-07-13T08:25:07;18.35;;;11.88;;
21233;SDS011;10774;42.178;26.578;2023-07-13T08:27:33;18.83;;;11.77;;
21233;SDS011;10774;42.178;26.578;2023-07-13T08:29:58;13.15;;;11.68;;
21233;SDS011;10774;42.178;26.578;2023-07-13T08:32:23;14.85;;;11.98;;
21233;SDS011;10774;42.178;26.578;2023-07-13T08:34:49;18.27;;;12.32;;
21233;SDS011;10774;42.178;26.578;2023-07-13T08:37:15;12.45;;;11.25;;
21233;SDS011;10774;42.178;26.578;2023-07-13T08:39:42;14.25;;;11.35;;
21233;SDS011;10774;42.178;26.578;2023-07-13T08:42:12;14.40;;;11.60;;
21233;SDS011;10774;42.178;26.578;2023-07-13T08:47:24;14.07;;;11.38;;
21233;SDS011;10774;42.178;26.578;2023-07-13T08:49:52;15.48;;;11.70;;
21233;SDS011;10774;42.178;26.578;2023-07-13T08:54:57;13.18;;;11.23;;
21233;SDS011;10774;42.178;26.578;2023-07-13T08:57:34;15.77;;;12.00;;
21233;SDS011;10774;42.178;26.578;2023-07-13T09:00:01;16.13;;;11.82;;
21233;SDS011;10774;42.178;26.578;2023-07-13T09:05:12;13.43;;;11.55;;
21233;SDS011;10774;42.178;26.578;2023-07-13T09:10:27;14.57;;;11.00;;
21233;SDS011;10774;42.178;26.578;2023-07-13T09:15:43;11.98;;;10.77;;
21233;SDS011;10774;42.178;26.578;2023-07-13T09:20:56;12.90;;;11.30;;
21233;SDS011;10774;42.178;26.578;2023-07-13T09:23:26;18.02;;;11.30;;
21233;SDS011;10774;42.178;26.578;2023-07-13T09:25:58;15.82;;;10.88;;
21233;SDS011;10774;42.178;26.578;2023-07-13T09:28:29;13.97;;;12.07;;
21233;SDS011;10774;42.178;26.578;2023-07-13T09:31:06;15.43;;;11.27;;
21233;SDS011;10774;42.178;26.578;2023-07-13T09:33:37;15.43;;;11.05;;
21233;SDS011;10774;42.178;26.578;2023-07-13T09:36:26;13.93;;;10.82;;
21233;SDS011;10774;42.178;26.578;2023-07-13T09:44:51;15.32;;;10.65;;
21233;SDS011;10774;42.178;26.578;2023-07-13T09:47:21;12.43;;;11.15;;
21233;SDS011;10774;42.178;26.578;2023-07-13T09:50:01;11.98;;;10.73;;
21233;SDS011;10774;42.178;26.578;2023-07-13T09:52:38;12.68;;;10.52;;
21233;SDS011;10774;42.178;26.578;2023-07-13T09:55:22;13.82;;;11.00;;
21233;SDS011;10774;42.178;26.578;2023-07-13T09:57:54;12.40;;;11.10;;
21233;SDS011;10774;42.178;26.578;2023-07-13T10:00:29;12.50;;;10.30;;
21233;SDS011;10774;42.178;26.578;2023-07-13T10:02:59;15.10;;;10.75;;
21233;SDS011;10774;42.178;26.578;2023-07-13T10:05:28;12.98;;;10.70;;
21233;SDS011;10774;42.178;26.578;2023-07-13T10:08:03;12.07;;;10.25;;
21233;SDS011;10774;42.178;26.578;2023-07-13T10:10:32;12.68;;;10.10;;
21233;SDS011;10774;42.178;26.578;2023-07-13T10:12:58;13.90;;;10.32;;
21233;SDS011;10774;42.178;26.578;2023-07-13T10:15:24;15.70;;;10.38;;
21233;SDS011;10774;42.178;26.578;2023-07-13T10:17:51;12.95;;;10.50;;
21233;SDS011;10774;42.178;26.578;2023-07-13T10:20:18;14.38;;;9.30;;
21233;SDS011;10774;42.178;26.578;2023-07-13T10:22:49;12.00;;;9.40;;
21233;SDS011;10774;42.178;26.578;2023-07-13T10:25:20;13.95;;;9.75;;
21233;SDS011;10774;42.178;26.578;2023-07-13T10:27:50;14.48;;;11.57;;
21233;SDS011;10774;42.178;26.578;2023-07-13T10:30:24;12.10;;;9.43;;
21233;SDS011;10774;42.178;26.578;2023-07-13T10:32:57;11.60;;;7.70;;
21233;SDS011;10774;42.178;26.578;2023-07-13T10:35:24;10.35;;;7.90;;
21233;SDS011;10774;42.178;26.578;2023-07-13T10:37:55;10.70;;;8.32;;
21233;SDS011;10774;42.178;26.578;2023-07-13T10:40:28;10.85;;;8.25;;
21233;SDS011;10774;42.178;26.578;2023-07-13T10:43:01;9.75;;;8.23;;
21233;SDS011;10774;42.178;26.578;2023-07-13T10:45:31;9.00;;;7.07;;
21233;SDS011;10774;42.178;26.578;2023-07-13T10:48:01;8.90;;;7.32;;
21233;SDS011;10774;42.178;26.578;2023-07-13T10:50:28;10.48;;;7.95;;
21233;SDS011;10774;42.178;26.578;2023-07-13T10:53:00;9.00;;;6.35;;
21233;SDS011;10774;42.178;26.578;2023-07-13T10:55:40;9.20;;;6.82;;
21233;SDS011;10774;42.178;26.578;2023-07-13T10:58:20;9.48;;;7.65;;
21233;SDS011;10774;42.178;26.578;2023-07-13T11:01:04;11.70;;;7.35;;
21233;SDS011;10774;42.178;26.578;2023-07-13T11:03:32;13.43;;;7.22;;
21233;SDS011;10774;42.178;26.578;2023-07-13T11:06:42;10.57;;;5.72;;
21233;SDS011;10774;42.178;26.578;2023-07-13T11:09:25;9.07;;;5.40;;
21233;SDS011;10774;42.178;26.578;2023-07-13T11:11:53;10.13;;;5.85;;
21233;SDS011;10774;42.178;26.578;2023-07-13T11:14:30;7.40;;;5.90;;
21233;SDS011;10774;42.178;26.578;2023-07-13T11:19:53;9.07;;;5.38;;
21233;SDS011;10774;42.178;26.578;2023-07-13T11:22:41;9.75;;;5.50;;
21233;SDS011;10774;42.178;26.578;2023-07-13T11:33:31;9.45;;;5.25;;
21233;SDS011;10774;42.178;26.578;2023-07-13T11:36:19;9.45;;;5.53;;
21233;SDS011;10774;42.178;26.578;2023-07-13T11:38:56;8.93;;;5.90;;
21233;SDS011;10774;42.178;26.578;2023-07-13T11:41:30;10.60;;;5.97;;
21233;SDS011;10774;42.178;26.578;2023-07-13T11:44:11;10.73;;;5.50;;
21233;SDS011;10774;42.178;26.578;2023-07-13T11:46:47;12.55;;;5.95;;
21233;SDS011;10774;42.178;26.578;2023-07-13T11:49:16;10.07;;;5.28;;
21233;SDS011;10774;42.178;26.578;2023-07-13T11:51:43;7.38;;;5.53;;
21233;SDS011;10774;42.178;26.578;2023-07-13T11:56:56;8.90;;;5.50;;
21233;SDS011;10774;42.178;26.578;2023-07-13T11:59:42;7.80;;;4.97;;
21233;SDS011;10774;42.178;26.578;2023-07-13T12:02:14;7.20;;;5.00;;
21233;SDS011;10774;42.178;26.578;2023-07-13T12:04:49;10.25;;;4.97;;
21233;SDS011;10774;42.178;26.578;2023-07-13T12:07:17;10.93;;;5.28;;
21233;SDS011;10774;42.178;26.578;2023-07-13T12:09:44;8.93;;;5.70;;
21233;SDS011;10774;42.178;26.578;2023-07-13T12:12:11;11.00;;;5.25;;
21233;SDS011;10774;42.178;26.578;2023-07-13T12:14:38;8.38;;;5.55;;
21233;SDS011;10774;42.178;26.578;2023-07-13T12:17:08;8.10;;;4.93;;
21233;SDS011;10774;42.178;26.578;2023-07-13T12:19:54;7.88;;;5.55;;
21233;SDS011;10774;42.178;26.578;2023-07-13T12:22:20;13.13;;;5.50;;
21233;SDS011;10774;42.178;26.578;2023-07-13T12:24:46;9.48;;;5.72;;
21233;SDS011;10774;42.178;26.578;2023-07-13T12:27:18;9.02;;;6.05;;
21233;SDS011;10774;42.178;26.578;2023-07-13T12:29:52;10.18;;;6.88;;
21233;SDS011;10774;42.178;26.578;2023-07-13T12:32:25;10.15;;;6.88;;
21233;SDS011;10774;42.178;26.578;2023-07-13T12:34:57;9.20;;;6.55;;
21233;SDS011;10774;42.178;26.578;2023-07-13T12:37:35;7.50;;;6.45;;
21233;SDS011;10774;42.178;26.578;2023-07-13T12:40:00;9.40;;;6.47;;
21233;SDS011;10774;42.178;26.578;2023-07-13T12:42:34;9.32;;;7.28;;
21233;SDS011;10774;42.178;26.578;2023-07-13T12:45:22;8.25;;;7.10;;
21233;SDS011;10774;42.178;26.578;2023-07-13T12:47:53;10.65;;;6.63;;
21233;SDS011;10774;42.178;26.578;2023-07-13T12:50:34;10.25;;;7.10;;
21233;SDS011;10774;42.178;26.578;2023-07-13T12:53:09;11.63;;;7.05;;
21233;SDS011;10774;42.178;26.578;2023-07-13T12:55:46;9.32;;;6.75;;
21233;SDS011;10774;42.178;26.578;2023-07-13T12:58:27;8.93;;;6.60;;
21233;SDS011;10774;42.178;26.578;2023-07-13T13:00:56;12.50;;;7.38;;
21233;SDS011;10774;42.178;26.578;2023-07-13T13:03:25;9.30;;;6.75;;
21233;SDS011;10774;42.178;26.578;2023-07-13T13:06:01;10.68;;;6.68;;
21233;SDS011;10774;42.178;26.578;2023-07-13T13:08:32;8.38;;;6.75;;
21233;SDS011;10774;42.178;26.578;2023-07-13T13:10:59;8.13;;;6.70;;
21233;SDS011;10774;42.178;26.578;2023-07-13T13:13:25;10.90;;;6.72;;
21233;SDS011;10774;42.178;26.578;2023-07-13T13:15:51;12.95;;;7.20;;
21233;SDS011;10774;42.178;26.578;2023-07-13T13:18:21;15.80;;;6.68;;
21233;SDS011;10774;42.178;26.578;2023-07-13T13:20:49;10.27;;;6.25;;
21233;SDS011;10774;42.178;26.578;2023-07-13T13:23:16;11.95;;;6.68;;
21233;SDS011;10774;42.178;26.578;2023-07-13T13:25:47;10.40;;;6.30;;
21233;SDS011;10774;42.178;26.578;2023-07-13T13:28:16;9.77;;;6.57;;
21233;SDS011;10774;42.178;26.578;2023-07-13T13:30:44;8.90;;;6.90;;
21233;SDS011;10774;42.178;26.578;2023-07-13T13:33:12;9.55;;;6.10;;
21233;SDS011;10774;42.178;26.578;2023-07-13T13:35:40;12.82;;;6.53;;
21233;SDS011;10774;42.178;26.578;2023-07-13T13:38:13;10.07;;;6.45;;
21233;SDS011;10774;42.178;26.578;2023-07-13T13:40:43;7.28;;;6.28;;
21233;SDS011;10774;42.178;26.578;2023-07-13T13:43:16;8.98;;;6.20;;
21233;SDS011;10774;42.178;26.578;2023-07-13T13:45:44;8.95;;;6.07;;
21233;SDS011;10774;42.178;26.578;2023-07-13T13:48:17;11.60;;;6.53;;
21233;SDS011;10774;42.178;26.578;2023-07-13T13:50:46;9.68;;;6.03;;
21233;SDS011;10774;42.178;26.578;2023-07-13T13:53:13;12.13;;;5.80;;
21233;SDS011;10774;42.178;26.578;2023-07-13T13:55:40;7.93;;;6.22;;
21233;SDS011;10774;42.178;26.578;2023-07-13T13:58:07;10.75;;;6.45;;
21233;SDS011;10774;42.178;26.578;2023-07-13T14:00:39;9.52;;;5.63;;
21233;SDS011;10774;42.178;26.578;2023-07-13T14:03:04;7.93;;;5.85;;
21233;SDS011;10774;42.178;26.578;2023-07-13T14:05:35;6.65;;;5.95;;
21233;SDS011;10774;42.178;26.578;2023-07-13T14:08:00;10.45;;;6.28;;
21233;SDS011;10774;42.178;26.578;2023-07-13T14:10:26;10.38;;;6.05;;
21233;SDS011;10774;42.178;26.578;2023-07-13T14:12:53;10.23;;;5.85;;
21233;SDS011;10774;42.178;26.578;2023-07-13T14:17:46;17.30;;;9.00;;
21233;SDS011;10774;42.178;26.578;2023-07-13T14:20:14;9.90;;;5.80;;
21233;SDS011;10774;42.178;26.578;2023-07-13T14:22:41;12.68;;;6.50;;
21233;SDS011;10774;42.178;26.578;2023-07-13T14:25:12;12.80;;;5.63;;
21233;SDS011;10774;42.178;26.578;2023-07-13T14:27:39;11.60;;;6.50;;
21233;SDS011;10774;42.178;26.578;2023-07-13T14:30:24;51.33;;;11.45;;
21233;SDS011;10774;42.178;26.578;2023-07-13T14:35:17;7.65;;;5.30;;
21233;SDS011;10774;42.178;26.578;2023-07-13T14:37:45;9.55;;;5.30;;
21233;SDS011;10774;42.178;26.578;2023-07-13T14:42:37;9.88;;;5.65;;
21233;SDS011;10774;42.178;26.578;2023-07-13T14:45:03;7.30;;;5.63;;
21233;SDS011;10774;42.178;26.578;2023-07-13T14:47:29;11.27;;;5.18;;
21233;SDS011;10774;42.178;26.578;2023-07-13T14:49:54;10.48;;;5.50;;
21233;SDS011;10774;42.178;26.578;2023-07-13T14:52:20;7.70;;;5.07;;
21233;SDS011;10774;42.178;26.578;2023-07-13T14:54:48;9.18;;;5.65;;
21233;SDS011;10774;42.178;26.578;2023-07-13T14:57:14;7.25;;;5.30;;
21233;SDS011;10774;42.178;26.578;2023-07-13T14:59:42;10.38;;;5.47;;
21233;SDS011;10774;42.178;26.578;2023-07-13T15:04:57;13.27;;;5.47;;
21233;SDS011;10774;42.178;26.578;2023-07-13T15:07:23;6.25;;;4.80;;
21233;SDS011;10774;42.178;26.578;2023-07-13T15:09:49;7.55;;;4.75;;
21233;SDS011;10774;42.178;26.578;2023-07-13T15:12:16;8.30;;;4.68;;
21233;SDS011;10774;42.178;26.578;2023-07-13T15:14:42;8.68;;;5.20;;
21233;SDS011;10774;42.178;26.578;2023-07-13T15:17:27;8.10;;;5.10;;